sensor_id;sensor_type;location;lat;lon;timestamp;pressure;altitude;pressure_sealevel;temperature;humidity
59686;BME280;45554;51.096;16.976;2022-08-21T00:04:08;99838.79;;;18.80;100.00
59686;BME280;45554;51.096;16.976;2022-08-21T00:06:44;99845.99;;;18.80;100.00
59686;BME280;45554;51.096;16.976;2022-08-21T00:09:14;99843.30;;;18.78;100.00
59686;BME280;45554;51.096;16.976;2022-08-21T00:11:44;99834.40;;;18.77;100.00
59686;BME280;45554;51.096;16.976;2022-08-21T00:14:14;99826.20;;;18.75;100.00
59686;BME280;45554;51.096;16.976;2022-08-21T00:16:45;99825.79;;;18.74;100.00
59686;BME280;45554;51.096;16.976;2022-08-21T00:19:13;99826.81;;;18.73;100.00
59686;BME280;45554;51.096;16.976;2022-08-21T00:21:41;99826.79;;;18.71;100.00
59686;BME280;45554;51.096;16.976;2022-08-21T00:24:12;99828.65;;;18.68;100.00
59686;BME280;45554;51.096;16.976;2022-08-21T00:26:41;99829.75;;;18.66;100.00
59686;BME280;45554;51.096;16.976;2022-08-21T00:29:10;99827.88;;;18.62;100.00
59686;BME280;45554;51.096;16.976;2022-08-21T00:31:39;99829.92;;;18.55;100.00
59686;BME280;45554;51.096;16.976;2022-08-21T00:34:09;99822.38;;;18.47;100.00
59686;BME280;45554;51.096;16.976;2022-08-21T00:36:38;99818.72;;;18.39;100.00
59686;BME280;45554;51.096;16.976;2022-08-21T00:39:07;99816.54;;;18.32;100.00
59686;BME280;45554;51.096;16.976;2022-08-21T00:41:37;99817.65;;;18.28;100.00
59686;BME280;45554;51.096;16.976;2022-08-21T00:44:08;99814.92;;;18.20;100.00
59686;BME280;45554;51.096;16.976;2022-08-21T00:46:37;99818.39;;;18.19;100.00
59686;BME280;45554;51.096;16.976;2022-08-21T00:49:08;99817.96;;;18.14;100.00
59686;BME280;45554;51.096;16.976;2022-08-21T00:51:43;99819.08;;;18.12;100.00
59686;BME280;45554;51.096;16.976;2022-08-21T00:54:18;99818.81;;;18.11;100.00
59686;BME280;45554;51.096;16.976;2022-08-21T00:56:52;99817.16;;;18.10;100.00
59686;BME280;45554;51.096;16.976;2022-08-21T00:59:23;99821.46;;;18.09;100.00
59686;BME280;45554;51.096;16.976;2022-08-21T01:01:53;99820.47;;;18.07;100.00
59686;BME280;45554;51.096;16.976;2022-08-21T01:04:22;99817.50;;;18.04;100.00
59686;BME280;45554;51.096;16.976;2022-08-21T01:06:51;99820.23;;;18.04;100.00
59686;BME280;45554;51.096;16.976;2022-08-21T01:09:23;99817.27;;;18.01;100.00
59686;BME280;45554;51.096;16.976;2022-08-21T01:11:51;99815.30;;;17.99;100.00
59686;BME280;45554;51.096;16.976;2022-08-21T01:14:20;99817.61;;;17.97;100.00
59686;BME280;45554;51.096;16.976;2022-08-21T01:16:51;99815.55;;;17.94;100.00
59686;BME280;45554;51.096;16.976;2022-08-21T01:19:22;99808.36;;;17.90;100.00
59686;BME280;45554;51.096;16.976;2022-08-21T01:21:50;99802.46;;;17.86;100.00
59686;BME280;45554;51.096;16.976;2022-08-21T01:24:19;99800.84;;;17.83;100.00
59686;BME280;45554;51.096;16.976;2022-08-21T01:26:48;99797.38;;;17.76;100.00
59686;BME280;45554;51.096;16.976;2022-08-21T01:29:34;99782.52;;;17.68;100.00
59686;BME280;45554;51.096;16.976;2022-08-21T01:32:08;99785.17;;;17.60;100.00
59686;BME280;45554;51.096;16.976;2022-08-21T01:34:42;99782.49;;;17.57;100.00
59686;BME280;45554;51.096;16.976;2022-08-21T01:37:12;99780.48;;;17.50;100.00
59686;BME280;45554;51.096;16.976;2022-08-21T01:39:45;99770.31;;;17.45;100.00
59686;BME280;45554;51.096;16.976;2022-08-21T01:42:16;99762.92;;;17.40;100.00
59686;BME280;45554;51.096;16.976;2022-08-21T01:44:44;99756.94;;;17.36;100.00
59686;BME280;45554;51.096;16.976;2022-08-21T01:47:13;99753.02;;;17.34;100.00
59686;BME280;45554;51.096;16.976;2022-08-21T01:49:48;99752.83;;;17.31;100.00
59686;BME280;45554;51.096;16.976;2022-08-21T01:55:00;99752.44;;;17.27;100.00
59686;BME280;45554;51.096;16.976;2022-08-21T01:57:29;99752.16;;;17.24;100.00
59686;BME280;45554;51.096;16.976;2022-08-21T01:59:58;99755.71;;;17.26;100.00
59686;BME280;45554;51.096;16.976;2022-08-21T02:02:26;99763.09;;;17.27;100.00
59686;BME280;45554;51.096;16.976;2022-08-21T02:04:55;99763.70;;;17.28;100.00
59686;BME280;45554;51.096;16.976;2022-08-21T02:07:25;99764.61;;;17.26;100.00
59686;BME280;45554;51.096;16.976;2022-08-21T02:09:57;99769.56;;;17.26;100.00
59686;BME280;45554;51.096;16.976;2022-08-21T02:12:28;99755.15;;;17.18;100.00
59686;BME280;45554;51.096;16.976;2022-08-21T02:15:06;99763.71;;;17.22;100.00
59686;BME280;45554;51.096;16.976;2022-08-21T02:17:43;99764.42;;;17.18;100.00
59686;BME280;45554;51.096;16.976;2022-08-21T02:20:23;99760.26;;;17.15;100.00
59686;BME280;45554;51.096;16.976;2022-08-21T02:22:57;99754.02;;;17.13;100.00
59686;BME280;45554;51.096;16.976;2022-08-21T02:25:27;99752.62;;;17.11;100.00
59686;BME280;45554;51.096;16.976;2022-08-21T02:27:57;99752.45;;;17.11;100.00
59686;BME280;45554;51.096;16.976;2022-08-21T02:30:30;99748.67;;;17.12;100.00
59686;BME280;45554;51.096;16.976;2022-08-21T02:33:00;99739.28;;;17.12;100.00
59686;BME280;45554;51.096;16.976;2022-08-21T02:35:28;99737.67;;;17.10;100.00
59686;BME280;45554;51.096;16.976;2022-08-21T02:38:04;99730.36;;;17.07;100.00
59686;BME280;45554;51.096;16.976;2022-08-21T02:40:41;99733.09;;;17.04;100.00
59686;BME280;45554;51.096;16.976;2022-08-21T02:43:18;99733.54;;;17.04;100.00
59686;BME280;45554;51.096;16.976;2022-08-21T02:45:49;99732.77;;;17.02;100.00
59686;BME280;45554;51.096;16.976;2022-08-21T02:48:22;99731.18;;;16.99;100.00
59686;BME280;45554;51.096;16.976;2022-08-21T02:50:57;99729.35;;;17.00;100.00
59686;BME280;45554;51.096;16.976;2022-08-21T02:53:26;99728.08;;;17.01;100.00
59686;BME280;45554;51.096;16.976;2022-08-21T02:55:56;99728.15;;;17.00;100.00
59686;BME280;45554;51.096;16.976;2022-08-21T02:58:27;99726.09;;;16.99;100.00
59686;BME280;45554;51.096;16.976;2022-08-21T03:00:57;99733.46;;;16.98;100.00
59686;BME280;45554;51.096;16.976;2022-08-21T03:03:27;99734.01;;;16.97;100.00
59686;BME280;45554;51.096;16.976;2022-08-21T03:05:57;99732.11;;;16.97;100.00
59686;BME280;45554;51.096;16.976;2022-08-21T03:08:28;99737.02;;;16.96;100.00
59686;BME280;45554;51.096;16.976;2022-08-21T03:10:56;99734.90;;;16.94;100.00
59686;BME280;45554;51.096;16.976;2022-08-21T03:13:28;99736.17;;;16.93;100.00
59686;BME280;45554;51.096;16.976;2022-08-21T03:15:59;99738.54;;;16.91;100.00
59686;BME280;45554;51.096;16.976;2022-08-21T03:18:28;99744.20;;;16.88;100.00
59686;BME280;45554;51.096;16.976;2022-08-21T03:20:56;99747.59;;;16.86;100.00
59686;BME280;45554;51.096;16.976;2022-08-21T03:23:24;99750.70;;;16.85;100.00
59686;BME280;45554;51.096;16.976;2022-08-21T03:25:59;99744.76;;;16.84;100.00
59686;BME280;45554;51.096;16.976;2022-08-21T03:28:28;99746.23;;;16.81;100.00
59686;BME280;45554;51.096;16.976;2022-08-21T03:30:56;99742.98;;;16.80;100.00
59686;BME280;45554;51.096;16.976;2022-08-21T03:33:25;99741.06;;;16.80;100.00
59686;BME280;45554;51.096;16.976;2022-08-21T03:36:00;99744.82;;;16.80;100.00
59686;BME280;45554;51.096;16.976;2022-08-21T03:38:33;99752.80;;;16.80;100.00
59686;BME280;45554;51.096;16.976;2022-08-21T03:41:05;99752.84;;;16.79;100.00
59686;BME280;45554;51.096;16.976;2022-08-21T03:43:35;99752.28;;;16.77;100.00
59686;BME280;45554;51.096;16.976;2022-08-21T03:46:06;99746.63;;;16.77;100.00
59686;BME280;45554;51.096;16.976;2022-08-21T03:48:35;99749.31;;;16.77;100.00
59686;BME280;45554;51.096;16.976;2022-08-21T03:51:05;99754.11;;;16.77;100.00
59686;BME280;45554;51.096;16.976;2022-08-21T03:53:34;99763.84;;;16.77;100.00
59686;BME280;45554;51.096;16.976;2022-08-21T03:56:03;99762.39;;;16.77;100.00
59686;BME280;45554;51.096;16.976;2022-08-21T03:58:32;99760.42;;;16.79;100.00
59686;BME280;45554;51.096;16.976;2022-08-21T04:01:03;99766.77;;;16.80;100.00
59686;BME280;45554;51.096;16.976;2022-08-21T04:03:37;99760.30;;;16.79;100.00
59686;BME280;45554;51.096;16.976;2022-08-21T04:06:06;99761.45;;;16.79;100.00
59686;BME280;45554;51.096;16.976;2022-08-21T04:08:37;99763.75;;;16.80;100.00
59686;BME280;45554;51.096;16.976;2022-08-21T04:11:07;99761.90;;;16.80;100.00
59686;BME280;45554;51.096;16.976;2022-08-21T04:13:35;99767.27;;;16.84;100.00
59686;BME280;45554;51.096;16.976;2022-08-21T04:16:12;99763.39;;;16.84;100.00
59686;BME280;45554;51.096;16.976;2022-08-21T04:18:44;99763.88;;;16.82;100.00
59686;BME280;45554;51.096;16.976;2022-08-21T04:21:13;99766.58;;;16.84;100.00
59686;BME280;45554;51.096;16.976;2022-08-21T04:23:43;99767.82;;;16.86;100.00
59686;BME280;45554;51.096;16.976;2022-08-21T04:26:11;99766.27;;;16.87;100.00
59686;BME280;45554;51.096;16.976;2022-08-21T04:28:39;99762.70;;;16.85;100.00
59686;BME280;45554;51.096;16.976;2022-08-21T04:31:08;99762.17;;;16.85;100.00
59686;BME280;45554;51.096;16.976;2022-08-21T04:33:42;99759.60;;;16.84;100.00
59686;BME280;45554;51.096;16.976;2022-08-21T04:36:11;99759.83;;;16.86;100.00
59686;BME280;45554;51.096;16.976;2022-08-21T04:38:39;99762.85;;;16.88;100.00
59686;BME280;45554;51.096;16.976;2022-08-21T04:41:12;99768.08;;;16.89;100.00
59686;BME280;45554;51.096;16.976;2022-08-21T04:43:40;99769.81;;;16.92;100.00
59686;BME280;45554;51.096;16.976;2022-08-21T04:46:09;99774.16;;;16.92;100.00
59686;BME280;45554;51.096;16.976;2022-08-21T04:48:43;99782.74;;;16.91;100.00
59686;BME280;45554;51.096;16.976;2022-08-21T04:51:32;99782.26;;;16.86;100.00
59686;BME280;45554;51.096;16.976;2022-08-21T04:54:14;99786.56;;;16.87;100.00
59686;BME280;45554;51.096;16.976;2022-08-21T04:56:45;99788.42;;;16.87;100.00
59686;BME280;45554;51.096;16.976;2022-08-21T04:59:24;99785.00;;;16.87;100.00
59686;BME280;45554;51.096;16.976;2022-08-21T05:01:53;99790.90;;;16.89;100.00
59686;BME280;45554;51.096;16.976;2022-08-21T05:04:29;99788.69;;;16.87;100.00
59686;BME280;45554;51.096;16.976;2022-08-21T05:07:02;99792.43;;;16.87;100.00
59686;BME280;45554;51.096;16.976;2022-08-21T05:09:33;99796.34;;;16.87;100.00
59686;BME280;45554;51.096;16.976;2022-08-21T05:12:02;99803.50;;;16.86;100.00
59686;BME280;45554;51.096;16.976;2022-08-21T05:14:30;99798.77;;;16.84;100.00
59686;BME280;45554;51.096;16.976;2022-08-21T05:16:59;99805.36;;;16.81;100.00
59686;BME280;45554;51.096;16.976;2022-08-21T05:19:30;99809.91;;;16.78;100.00
59686;BME280;45554;51.096;16.976;2022-08-21T05:21:58;99802.88;;;16.68;100.00
59686;BME280;45554;51.096;16.976;2022-08-21T05:24:27;99819.05;;;16.72;100.00
59686;BME280;45554;51.096;16.976;2022-08-21T05:26:57;99817.52;;;16.72;100.00
59686;BME280;45554;51.096;16.976;2022-08-21T05:29:32;99813.05;;;16.70;100.00
59686;BME280;45554;51.096;16.976;2022-08-21T05:32:08;99808.80;;;16.70;100.00
59686;BME280;45554;51.096;16.976;2022-08-21T05:34:37;99810.41;;;16.70;100.00
59686;BME280;45554;51.096;16.976;2022-08-21T05:37:09;99818.31;;;16.71;100.00
59686;BME280;45554;51.096;16.976;2022-08-21T05:39:38;99822.10;;;16.72;100.00
59686;BME280;45554;51.096;16.976;2022-08-21T05:42:27;99821.31;;;16.73;100.00
59686;BME280;45554;51.096;16.976;2022-08-21T05:44:55;99829.28;;;16.73;100.00
59686;BME280;45554;51.096;16.976;2022-08-21T05:47:24;99829.05;;;16.73;100.00
59686;BME280;45554;51.096;16.976;2022-08-21T05:49:53;99831.81;;;16.74;100.00
59686;BME280;45554;51.096;16.976;2022-08-21T05:52:23;99840.67;;;16.74;100.00
59686;BME280;45554;51.096;16.976;2022-08-21T05:54:55;99840.50;;;16.74;100.00
59686;BME280;45554;51.096;16.976;2022-08-21T05:57:24;99837.92;;;16.75;100.00
59686;BME280;45554;51.096;16.976;2022-08-21T05:59:53;99840.50;;;16.74;100.00
59686;BME280;45554;51.096;16.976;2022-08-21T06:02:21;99841.89;;;16.74;100.00
59686;BME280;45554;51.096;16.976;2022-08-21T06:04:50;99841.61;;;16.76;100.00
59686;BME280;45554;51.096;16.976;2022-08-21T06:07:18;99848.52;;;16.76;100.00
59686;BME280;45554;51.096;16.976;2022-08-21T06:09:47;99853.04;;;16.72;100.00
59686;BME280;45554;51.096;16.976;2022-08-21T06:12:16;99859.45;;;16.68;100.00
59686;BME280;45554;51.096;16.976;2022-08-21T06:14:45;99868.11;;;16.62;100.00
59686;BME280;45554;51.096;16.976;2022-08-21T06:17:13;99872.59;;;16.57;100.00
59686;BME280;45554;51.096;16.976;2022-08-21T06:19:43;99873.94;;;16.52;100.00
59686;BME280;45554;51.096;16.976;2022-08-21T06:22:13;99875.78;;;16.46;100.00
59686;BME280;45554;51.096;16.976;2022-08-21T06:24:41;99876.84;;;16.43;100.00
59686;BME280;45554;51.096;16.976;2022-08-21T06:27:10;99883.36;;;16.41;100.00
59686;BME280;45554;51.096;16.976;2022-08-21T06:29:38;99878.96;;;16.36;100.00
59686;BME280;45554;51.096;16.976;2022-08-21T06:32:12;99890.88;;;16.36;100.00
59686;BME280;45554;51.096;16.976;2022-08-21T06:34:43;99893.88;;;16.31;100.00
59686;BME280;45554;51.096;16.976;2022-08-21T06:37:10;99902.95;;;16.33;100.00
59686;BME280;45554;51.096;16.976;2022-08-21T06:39:39;99904.91;;;16.33;100.00
59686;BME280;45554;51.096;16.976;2022-08-21T06:42:16;99905.42;;;16.29;100.00
59686;BME280;45554;51.096;16.976;2022-08-21T06:44:45;99915.55;;;16.22;100.00
59686;BME280;45554;51.096;16.976;2022-08-21T06:47:13;99932.17;;;16.09;100.00
59686;BME280;45554;51.096;16.976;2022-08-21T06:49:42;99940.63;;;15.94;100.00
59686;BME280;45554;51.096;16.976;2022-08-21T06:52:14;99940.58;;;15.84;100.00
59686;BME280;45554;51.096;16.976;2022-08-21T06:54:44;99949.00;;;15.73;100.00
59686;BME280;45554;51.096;16.976;2022-08-21T06:57:12;99963.19;;;15.62;100.00
59686;BME280;45554;51.096;16.976;2022-08-21T06:59:40;99957.88;;;15.51;100.00
59686;BME280;45554;51.096;16.976;2022-08-21T07:02:09;99964.90;;;15.43;100.00
59686;BME280;45554;51.096;16.976;2022-08-21T07:04:37;99956.02;;;15.32;100.00
59686;BME280;45554;51.096;16.976;2022-08-21T07:07:05;99957.09;;;15.26;100.00
59686;BME280;45554;51.096;16.976;2022-08-21T07:09:33;99957.78;;;15.19;100.00
59686;BME280;45554;51.096;16.976;2022-08-21T07:12:03;99955.92;;;15.13;100.00
59686;BME280;45554;51.096;16.976;2022-08-21T07:14:30;99951.87;;;15.09;100.00
59686;BME280;45554;51.096;16.976;2022-08-21T07:16:58;99952.65;;;15.04;100.00
59686;BME280;45554;51.096;16.976;2022-08-21T07:19:27;99958.59;;;15.00;100.00
59686;BME280;45554;51.096;16.976;2022-08-21T07:21:57;99955.73;;;14.98;100.00
59686;BME280;45554;51.096;16.976;2022-08-21T07:24:26;99957.76;;;14.94;100.00
59686;BME280;45554;51.096;16.976;2022-08-21T07:26:54;99954.27;;;14.92;100.00
59686;BME280;45554;51.096;16.976;2022-08-21T07:29:24;99950.48;;;14.90;100.00
59686;BME280;45554;51.096;16.976;2022-08-21T07:31:52;99956.09;;;14.91;100.00
59686;BME280;45554;51.096;16.976;2022-08-21T07:34:20;99955.29;;;14.92;100.00
59686;BME280;45554;51.096;16.976;2022-08-21T07:36:48;99956.58;;;14.96;100.00
59686;BME280;45554;51.096;16.976;2022-08-21T07:39:17;99956.96;;;14.95;100.00
59686;BME280;45554;51.096;16.976;2022-08-21T07:41:45;99960.27;;;14.94;100.00
59686;BME280;45554;51.096;16.976;2022-08-21T07:44:14;99961.64;;;14.92;100.00
59686;BME280;45554;51.096;16.976;2022-08-21T07:46:45;99958.42;;;14.86;100.00
59686;BME280;45554;51.096;16.976;2022-08-21T07:49:20;99943.85;;;14.81;100.00
59686;BME280;45554;51.096;16.976;2022-08-21T07:51:48;99948.88;;;14.77;100.00
59686;BME280;45554;51.096;16.976;2022-08-21T07:54:16;99960.77;;;14.74;100.00
59686;BME280;45554;51.096;16.976;2022-08-21T07:56:54;99974.84;;;14.67;100.00
59686;BME280;45554;51.096;16.976;2022-08-21T07:59:22;99978.98;;;14.64;100.00
59686;BME280;45554;51.096;16.976;2022-08-21T08:01:51;99979.09;;;14.60;100.00
59686;BME280;45554;51.096;16.976;2022-08-21T08:04:19;99974.20;;;14.54;100.00
59686;BME280;45554;51.096;16.976;2022-08-21T08:06:52;99972.17;;;14.49;100.00
59686;BME280;45554;51.096;16.976;2022-08-21T08:09:20;99961.59;;;14.44;100.00
59686;BME280;45554;51.096;16.976;2022-08-21T08:11:49;99961.05;;;14.45;100.00
59686;BME280;45554;51.096;16.976;2022-08-21T08:14:17;99966.11;;;14.48;100.00
59686;BME280;45554;51.096;16.976;2022-08-21T08:16:45;99961.79;;;14.46;100.00
59686;BME280;45554;51.096;16.976;2022-08-21T08:19:13;99962.17;;;14.48;100.00
59686;BME280;45554;51.096;16.976;2022-08-21T08:21:41;99966.33;;;14.49;100.00
59686;BME280;45554;51.096;16.976;2022-08-21T08:24:10;99969.42;;;14.52;100.00
59686;BME280;45554;51.096;16.976;2022-08-21T08:26:46;99969.82;;;14.50;100.00
59686;BME280;45554;51.096;16.976;2022-08-21T08:29:21;99966.18;;;14.46;100.00
59686;BME280;45554;51.096;16.976;2022-08-21T08:31:50;99963.83;;;14.47;100.00
59686;BME280;45554;51.096;16.976;2022-08-21T08:34:18;99971.48;;;14.51;100.00
59686;BME280;45554;51.096;16.976;2022-08-21T08:36:52;99974.83;;;14.51;100.00
59686;BME280;45554;51.096;16.976;2022-08-21T08:39:22;99982.89;;;14.47;100.00
59686;BME280;45554;51.096;16.976;2022-08-21T08:42:05;99975.16;;;14.45;100.00
59686;BME280;45554;51.096;16.976;2022-08-21T08:45:09;99976.49;;;14.41;100.00
59686;BME280;45554;51.096;16.976;2022-08-21T08:47:42;99975.30;;;14.42;100.00
59686;BME280;45554;51.096;16.976;2022-08-21T08:50:18;99980.40;;;14.43;100.00
59686;BME280;45554;51.096;16.976;2022-08-21T08:52:53;99972.73;;;14.41;100.00
59686;BME280;45554;51.096;16.976;2022-08-21T08:55:45;99975.60;;;14.40;100.00
59686;BME280;45554;51.096;16.976;2022-08-21T08:58:20;99973.41;;;14.42;100.00
59686;BME280;45554;51.096;16.976;2022-08-21T09:00:54;99971.06;;;14.45;100.00
59686;BME280;45554;51.096;16.976;2022-08-21T09:03:24;99971.34;;;14.51;100.00
59686;BME280;45554;51.096;16.976;2022-08-21T09:09:22;99974.33;;;14.55;100.00
59686;BME280;45554;51.096;16.976;2022-08-21T09:12:04;99975.36;;;14.53;100.00
59686;BME280;45554;51.096;16.976;2022-08-21T09:14:54;99980.39;;;14.45;100.00
59686;BME280;45554;51.096;16.976;2022-08-21T09:17:40;99980.34;;;14.34;100.00
59686;BME280;45554;51.096;16.976;2022-08-21T09:23:33;99978.45;;;14.26;100.00
59686;BME280;45554;51.096;16.976;2022-08-21T09:26:12;99989.17;;;14.32;100.00
59686;BME280;45554;51.096;16.976;2022-08-21T09:28:41;99988.48;;;14.34;100.00
59686;BME280;45554;51.096;16.976;2022-08-21T09:31:27;99986.88;;;14.34;100.00
59686;BME280;45554;51.096;16.976;2022-08-21T09:34:01;99988.88;;;14.37;100.00
59686;BME280;45554;51.096;16.976;2022-08-21T09:36:51;99993.73;;;14.41;100.00
59686;BME280;45554;51.096;16.976;2022-08-21T09:39:26;99985.83;;;14.50;100.00
59686;BME280;45554;51.096;16.976;2022-08-21T09:42:03;99988.07;;;14.60;100.00
59686;BME280;45554;51.096;16.976;2022-08-21T09:44:37;99995.59;;;14.59;100.00
59686;BME280;45554;51.096;16.976;2022-08-21T09:47:11;99990.66;;;14.56;100.00
59686;BME280;45554;51.096;16.976;2022-08-21T09:49:53;99993.48;;;14.53;100.00
59686;BME280;45554;51.096;16.976;2022-08-21T09:52:25;99993.17;;;14.53;100.00
59686;BME280;45554;51.096;16.976;2022-08-21T09:54:56;99991.27;;;14.53;100.00
59686;BME280;45554;51.096;16.976;2022-08-21T09:57:28;99985.20;;;14.56;100.00
59686;BME280;45554;51.096;16.976;2022-08-21T10:00:24;99990.83;;;14.61;100.00
59686;BME280;45554;51.096;16.976;2022-08-21T10:02:53;99990.19;;;14.62;100.00
59686;BME280;45554;51.096;16.976;2022-08-21T10:05:25;99986.63;;;14.65;100.00
59686;BME280;45554;51.096;16.976;2022-08-21T10:07:56;99986.77;;;14.68;100.00
59686;BME280;45554;51.096;16.976;2022-08-21T10:10:32;99992.71;;;14.68;100.00
59686;BME280;45554;51.096;16.976;2022-08-21T10:13:20;99996.36;;;14.72;100.00
59686;BME280;45554;51.096;16.976;2022-08-21T10:16:00;99993.04;;;14.74;100.00
59686;BME280;45554;51.096;16.976;2022-08-21T10:19:19;99991.41;;;14.75;100.00
59686;BME280;45554;51.096;16.976;2022-08-21T10:24:40;99996.33;;;14.77;100.00
59686;BME280;45554;51.096;16.976;2022-08-21T10:30:12;99999.52;;;14.79;100.00
59686;BME280;45554;51.096;16.976;2022-08-21T10:32:52;99992.70;;;14.83;100.00
59686;BME280;45554;51.096;16.976;2022-08-21T10:35:33;99994.75;;;14.89;100.00
59686;BME280;45554;51.096;16.976;2022-08-21T10:47:01;99995.38;;;15.21;100.00
59686;BME280;45554;51.096;16.976;2022-08-21T10:49:49;99992.16;;;15.31;100.00
59686;BME280;45554;51.096;16.976;2022-08-21T10:55:18;99988.13;;;15.53;100.00
59686;BME280;45554;51.096;16.976;2022-08-21T10:57:58;99984.65;;;15.61;100.00
59686;BME280;45554;51.096;16.976;2022-08-21T11:00:31;99985.98;;;15.71;100.00
59686;BME280;45554;51.096;16.976;2022-08-21T11:03:07;99984.46;;;15.78;100.00
59686;BME280;45554;51.096;16.976;2022-08-21T11:08:22;99985.88;;;15.87;100.00
59686;BME280;45554;51.096;16.976;2022-08-21T11:13:57;99984.71;;;16.00;100.00
59686;BME280;45554;51.096;16.976;2022-08-21T11:16:37;99985.79;;;16.02;100.00
59686;BME280;45554;51.096;16.976;2022-08-21T11:19:13;99990.75;;;16.04;100.00
59686;BME280;45554;51.096;16.976;2022-08-21T11:21:49;99992.50;;;16.02;100.00
59686;BME280;45554;51.096;16.976;2022-08-21T11:27:09;99996.36;;;16.00;100.00
59686;BME280;45554;51.096;16.976;2022-08-21T11:29:52;99993.59;;;15.95;100.00
59686;BME280;45554;51.096;16.976;2022-08-21T11:35:13;99993.98;;;15.93;100.00
59686;BME280;45554;51.096;16.976;2022-08-21T11:43:40;99999.86;;;15.92;100.00
59686;BME280;45554;51.096;16.976;2022-08-21T11:52:01;99994.95;;;16.02;100.00
59686;BME280;45554;51.096;16.976;2022-08-21T11:54:36;99986.70;;;16.08;100.00
59686;BME280;45554;51.096;16.976;2022-08-21T11:57:17;99988.08;;;16.13;100.00
59686;BME280;45554;51.096;16.976;2022-08-21T12:02:46;99994.27;;;16.30;100.00
59686;BME280;45554;51.096;16.976;2022-08-21T12:05:27;99989.39;;;16.38;100.00
59686;BME280;45554;51.096;16.976;2022-08-21T12:08:44;99990.73;;;16.43;100.00
59686;BME280;45554;51.096;16.976;2022-08-21T12:16:41;99995.64;;;16.52;100.00
59686;BME280;45554;51.096;16.976;2022-08-21T12:19:28;99996.44;;;16.51;100.00
59686;BME280;45554;51.096;16.976;2022-08-21T12:24:49;100000.67;;;16.51;100.00
59686;BME280;45554;51.096;16.976;2022-08-21T12:27:28;100000.88;;;16.52;100.00
59686;BME280;45554;51.096;16.976;2022-08-21T12:30:17;99998.58;;;16.50;100.00
59686;BME280;45554;51.096;16.976;2022-08-21T12:32:58;99994.14;;;16.51;100.00
59686;BME280;45554;51.096;16.976;2022-08-21T12:35:37;99998.05;;;16.52;100.00
59686;BME280;45554;51.096;16.976;2022-08-21T12:41:44;99993.25;;;16.55;100.00
59686;BME280;45554;51.096;16.976;2022-08-21T12:43:51;99986.82;;;16.55;100.00
59686;BME280;45554;51.096;16.976;2022-08-21T12:46:32;99985.73;;;16.60;100.00
59686;BME280;45554;51.096;16.976;2022-08-21T12:49:18;99989.30;;;16.64;100.00
59686;BME280;45554;51.096;16.976;2022-08-21T12:52:09;99988.52;;;16.69;100.00
59686;BME280;45554;51.096;16.976;2022-08-21T12:54:43;99989.48;;;16.72;100.00
59686;BME280;45554;51.096;16.976;2022-08-21T12:57:22;99997.10;;;16.72;99.99
59686;BME280;45554;51.096;16.976;2022-08-21T12:59:54;99987.38;;;16.70;99.79
59686;BME280;45554;51.096;16.976;2022-08-21T13:02:26;99994.84;;;16.70;99.52
59686;BME280;45554;51.096;16.976;2022-08-21T13:04:56;99988.07;;;16.70;99.52
59686;BME280;45554;51.096;16.976;2022-08-21T13:07:33;99990.30;;;16.71;99.15
59686;BME280;45554;51.096;16.976;2022-08-21T13:10:04;99983.56;;;16.75;99.87
59686;BME280;45554;51.096;16.976;2022-08-21T13:12:33;99988.14;;;16.78;99.41
59686;BME280;45554;51.096;16.976;2022-08-21T13:15:05;99984.91;;;16.80;99.08
59686;BME280;45554;51.096;16.976;2022-08-21T13:17:38;99992.80;;;16.85;98.90
59686;BME280;45554;51.096;16.976;2022-08-21T13:20:22;99982.84;;;16.92;99.97
59686;BME280;45554;51.096;16.976;2022-08-21T13:22:51;99986.64;;;16.97;99.33
59686;BME280;45554;51.096;16.976;2022-08-21T13:25:21;99981.59;;;17.03;99.52
59686;BME280;45554;51.096;16.976;2022-08-21T13:28:16;99983.90;;;17.07;99.43
59686;BME280;45554;51.096;16.976;2022-08-21T13:30:53;99988.36;;;17.14;98.80
59686;BME280;45554;51.096;16.976;2022-08-21T13:33:25;99988.08;;;17.20;97.60
59686;BME280;45554;51.096;16.976;2022-08-21T13:36:10;99987.48;;;17.24;92.59
59686;BME280;45554;51.096;16.976;2022-08-21T13:38:42;99985.38;;;17.28;91.79
59686;BME280;45554;51.096;16.976;2022-08-21T13:41:24;99982.80;;;17.32;90.17
59686;BME280;45554;51.096;16.976;2022-08-21T13:44:13;99989.27;;;17.37;89.21
59686;BME280;45554;51.096;16.976;2022-08-21T13:46:48;99989.55;;;17.39;88.85
59686;BME280;45554;51.096;16.976;2022-08-21T13:49:20;99988.23;;;17.40;88.57
59686;BME280;45554;51.096;16.976;2022-08-21T13:51:51;99988.39;;;17.42;88.95
59686;BME280;45554;51.096;16.976;2022-08-21T13:54:26;99986.75;;;17.45;87.15
59686;BME280;45554;51.096;16.976;2022-08-21T13:56:55;99984.65;;;17.49;87.27
59686;BME280;45554;51.096;16.976;2022-08-21T13:59:29;99978.61;;;17.51;86.33
59686;BME280;45554;51.096;16.976;2022-08-21T14:02:01;99988.49;;;17.53;86.53
59686;BME280;45554;51.096;16.976;2022-08-21T14:04:38;99991.58;;;17.53;84.15
59686;BME280;45554;51.096;16.976;2022-08-21T14:07:33;99988.72;;;17.51;84.30
59686;BME280;45554;51.096;16.976;2022-08-21T14:10:18;99991.56;;;17.49;82.83
59686;BME280;45554;51.096;16.976;2022-08-21T14:12:53;99990.84;;;17.49;83.58
59686;BME280;45554;51.096;16.976;2022-08-21T14:15:27;99987.38;;;17.50;83.75
59686;BME280;45554;51.096;16.976;2022-08-21T14:18:13;99990.64;;;17.49;82.07